sensor_id;sensor_type;location;lat;lon;timestamp;P1;durP1;ratioP1;P2;durP2;ratioP2
1082;SDS011;530;51.448;7.238;2024-01-10T00:01:17;8.80;;;5.70;;
1082;SDS011;530;51.448;7.238;2024-01-10T00:03:43;7.07;;;5.00;;
1082;SDS011;530;51.448;7.238;2024-01-10T00:06:12;9.33;;;6.10;;
1082;SDS011;530;51.448;7.238;2024-01-10T00:08:37;8.90;;;5.63;;
1082;SDS011;530;51.448;7.238;2024-01-10T00:11:03;7.30;;;5.73;;
1082;SDS011;530;51.448;7.238;2024-01-10T00:13:30;9.80;;;5.67;;
1082;SDS011;530;51.448;7.238;2024-01-10T00:15:57;7.30;;;5.20;;
1082;SDS011;530;51.448;7.238;2024-01-10T00:18:24;6.87;;;5.27;;
1082;SDS011;530;51.448;7.238;2024-01-10T00:20:51;7.63;;;5.40;;
1082;SDS011;530;51.448;7.238;2024-01-10T00:23:19;10.20;;;6.10;;
1082;SDS011;530;51.448;7.238;2024-01-10T00:25:45;7.07;;;5.63;;
1082;SDS011;530;51.448;7.238;2024-01-10T00:28:11;8.80;;;4.77;;
1082;SDS011;530;51.448;7.238;2024-01-10T00:30:37;9.57;;;6.03;;
1082;SDS011;530;51.448;7.238;2024-01-10T00:33:03;8.70;;;5.57;;
1082;SDS011;530;51.448;7.238;2024-01-10T00:35:30;7.20;;;5.13;;
1082;SDS011;530;51.448;7.238;2024-01-10T00:37:56;8.50;;;5.93;;
1082;SDS011;530;51.448;7.238;2024-01-10T00:40:22;8.30;;;5.37;;
1082;SDS011;530;51.448;7.238;2024-01-10T00:42:48;8.60;;;5.97;;
1082;SDS011;530;51.448;7.238;2024-01-10T00:45:15;10.33;;;5.47;;
1082;SDS011;530;51.448;7.238;2024-01-10T00:47:41;8.33;;;5.07;;
1082;SDS011;530;51.448;7.238;2024-01-10T00:50:07;10.90;;;5.33;;
1082;SDS011;530;51.448;7.238;2024-01-10T00:52:33;7.10;;;5.03;;
1082;SDS011;530;51.448;7.238;2024-01-10T00:54:59;9.90;;;5.20;;
1082;SDS011;530;51.448;7.238;2024-01-10T00:57:24;10.07;;;6.10;;
1082;SDS011;530;51.448;7.238;2024-01-10T00:59:50;11.10;;;6.47;;
1082;SDS011;530;51.448;7.238;2024-01-10T01:02:16;8.37;;;5.40;;
1082;SDS011;530;51.448;7.238;2024-01-10T01:04:41;10.07;;;5.20;;
1082;SDS011;530;51.448;7.238;2024-01-10T01:07:07;9.37;;;5.90;;
1082;SDS011;530;51.448;7.238;2024-01-10T01:09:33;8.40;;;5.17;;
1082;SDS011;530;51.448;7.238;2024-01-10T01:11:59;8.20;;;4.87;;
1082;SDS011;530;51.448;7.238;2024-01-10T01:14:25;9.90;;;6.03;;
1082;SDS011;530;51.448;7.238;2024-01-10T01:16:51;9.10;;;5.77;;
1082;SDS011;530;51.448;7.238;2024-01-10T01:19:17;6.50;;;4.80;;
1082;SDS011;530;51.448;7.238;2024-01-10T01:21:43;8.10;;;5.17;;
1082;SDS011;530;51.448;7.238;2024-01-10T01:24:08;8.60;;;5.70;;
1082;SDS011;530;51.448;7.238;2024-01-10T01:26:34;6.57;;;5.33;;
1082;SDS011;530;51.448;7.238;2024-01-10T01:29:00;7.73;;;5.20;;
1082;SDS011;530;51.448;7.238;2024-01-10T01:31:25;8.20;;;5.40;;
1082;SDS011;530;51.448;7.238;2024-01-10T01:33:51;8.60;;;5.50;;
1082;SDS011;530;51.448;7.238;2024-01-10T01:36:17;10.43;;;5.80;;
1082;SDS011;530;51.448;7.238;2024-01-10T01:38:43;8.57;;;6.40;;
1082;SDS011;530;51.448;7.238;2024-01-10T01:41:09;10.33;;;5.03;;
1082;SDS011;530;51.448;7.238;2024-01-10T01:43:35;11.37;;;5.87;;
1082;SDS011;530;51.448;7.238;2024-01-10T01:46:01;8.80;;;5.90;;
1082;SDS011;530;51.448;7.238;2024-01-10T01:48:28;9.33;;;5.77;;
1082;SDS011;530;51.448;7.238;2024-01-10T01:50:57;6.50;;;5.10;;
1082;SDS011;530;51.448;7.238;2024-01-10T01:53:27;9.10;;;5.73;;
1082;SDS011;530;51.448;7.238;2024-01-10T01:55:56;13.10;;;6.20;;
1082;SDS011;530;51.448;7.238;2024-01-10T01:58:25;11.53;;;5.60;;
1082;SDS011;530;51.448;7.238;2024-01-10T02:00:51;9.33;;;5.93;;
1082;SDS011;530;51.448;7.238;2024-01-10T02:03:17;8.73;;;5.43;;
1082;SDS011;530;51.448;7.238;2024-01-10T02:05:43;9.50;;;5.50;;
1082;SDS011;530;51.448;7.238;2024-01-10T02:08:11;10.30;;;5.80;;
1082;SDS011;530;51.448;7.238;2024-01-10T02:10:36;8.37;;;5.37;;
1082;SDS011;530;51.448;7.238;2024-01-10T02:13:02;9.27;;;5.80;;
1082;SDS011;530;51.448;7.238;2024-01-10T02:15:28;8.97;;;5.57;;
1082;SDS011;530;51.448;7.238;2024-01-10T02:17:54;8.43;;;5.77;;
1082;SDS011;530;51.448;7.238;2024-01-10T02:20:20;11.07;;;7.10;;
1082;SDS011;530;51.448;7.238;2024-01-10T02:22:46;7.90;;;5.43;;
1082;SDS011;530;51.448;7.238;2024-01-10T02:25:13;8.10;;;5.40;;
1082;SDS011;530;51.448;7.238;2024-01-10T02:27:39;9.50;;;5.60;;
1082;SDS011;530;51.448;7.238;2024-01-10T02:30:06;9.40;;;6.70;;
1082;SDS011;530;51.448;7.238;2024-01-10T02:32:33;8.23;;;5.90;;
1082;SDS011;530;51.448;7.238;2024-01-10T02:34:59;11.30;;;5.97;;
1082;SDS011;530;51.448;7.238;2024-01-10T02:37:25;10.83;;;6.90;;
1082;SDS011;530;51.448;7.238;2024-01-10T02:39:51;9.70;;;5.73;;
1082;SDS011;530;51.448;7.238;2024-01-10T02:42:17;8.30;;;5.70;;
1082;SDS011;530;51.448;7.238;2024-01-10T02:44:43;7.63;;;5.90;;
1082;SDS011;530;51.448;7.238;2024-01-10T02:47:09;10.43;;;5.77;;
1082;SDS011;530;51.448;7.238;2024-01-10T02:49:36;10.33;;;5.93;;
1082;SDS011;530;51.448;7.238;2024-01-10T02:52:01;10.23;;;6.40;;
1082;SDS011;530;51.448;7.238;2024-01-10T02:54:27;10.90;;;6.37;;
1082;SDS011;530;51.448;7.238;2024-01-10T02:56:53;13.17;;;6.63;;
1082;SDS011;530;51.448;7.238;2024-01-10T02:59:18;9.93;;;6.53;;
1082;SDS011;530;51.448;7.238;2024-01-10T03:01:44;10.30;;;6.57;;
1082;SDS011;530;51.448;7.238;2024-01-10T03:04:10;9.70;;;6.70;;
1082;SDS011;530;51.448;7.238;2024-01-10T03:06:35;7.43;;;5.40;;
1082;SDS011;530;51.448;7.238;2024-01-10T03:09:01;8.30;;;6.10;;
1082;SDS011;530;51.448;7.238;2024-01-10T03:11:28;9.40;;;5.83;;
1082;SDS011;530;51.448;7.238;2024-01-10T03:14:03;10.07;;;6.93;;
1082;SDS011;530;51.448;7.238;2024-01-10T03:16:32;10.00;;;6.20;;
1082;SDS011;530;51.448;7.238;2024-01-10T03:18:58;8.50;;;6.50;;
1082;SDS011;530;51.448;7.238;2024-01-10T03:21:24;9.73;;;6.00;;
1082;SDS011;530;51.448;7.238;2024-01-10T03:23:52;11.47;;;7.20;;
1082;SDS011;530;51.448;7.238;2024-01-10T03:26:21;8.00;;;6.20;;
1082;SDS011;530;51.448;7.238;2024-01-10T03:28:47;10.13;;;5.60;;
1082;SDS011;530;51.448;7.238;2024-01-10T03:31:13;10.23;;;6.10;;
1082;SDS011;530;51.448;7.238;2024-01-10T03:33:39;8.70;;;5.70;;
1082;SDS011;530;51.448;7.238;2024-01-10T03:36:05;11.70;;;6.63;;
1082;SDS011;530;51.448;7.238;2024-01-10T03:38:31;12.30;;;7.30;;
1082;SDS011;530;51.448;7.238;2024-01-10T03:40:57;10.43;;;6.43;;
1082;SDS011;530;51.448;7.238;2024-01-10T03:43:22;10.57;;;6.40;;
1082;SDS011;530;51.448;7.238;2024-01-10T03:45:48;11.90;;;6.27;;
1082;SDS011;530;51.448;7.238;2024-01-10T03:48:14;8.10;;;5.37;;
1082;SDS011;530;51.448;7.238;2024-01-10T03:50:39;13.97;;;7.13;;
1082;SDS011;530;51.448;7.238;2024-01-10T03:53:05;10.10;;;7.00;;
1082;SDS011;530;51.448;7.238;2024-01-10T03:55:31;12.03;;;6.43;;
1082;SDS011;530;51.448;7.238;2024-01-10T03:57:57;10.63;;;6.10;;
1082;SDS011;530;51.448;7.238;2024-01-10T04:00:23;9.00;;;5.80;;
1082;SDS011;530;51.448;7.238;2024-01-10T04:02:50;9.63;;;6.40;;
1082;SDS011;530;51.448;7.238;2024-01-10T04:05:15;12.07;;;6.90;;
1082;SDS011;530;51.448;7.238;2024-01-10T04:07:41;8.30;;;5.90;;
1082;SDS011;530;51.448;7.238;2024-01-10T04:10:08;8.43;;;5.70;;
1082;SDS011;530;51.448;7.238;2024-01-10T04:12:48;9.30;;;6.17;;
1082;SDS011;530;51.448;7.238;2024-01-10T04:15:14;10.60;;;7.43;;
1082;SDS011;530;51.448;7.238;2024-01-10T04:17:40;12.23;;;6.63;;
1082;SDS011;530;51.448;7.238;2024-01-10T04:20:06;10.73;;;6.17;;
1082;SDS011;530;51.448;7.238;2024-01-10T04:22:32;8.33;;;6.60;;
1082;SDS011;530;51.448;7.238;2024-01-10T04:24:58;11.57;;;6.53;;
1082;SDS011;530;51.448;7.238;2024-01-10T04:27:24;11.97;;;5.97;;
1082;SDS011;530;51.448;7.238;2024-01-10T04:29:50;7.87;;;5.43;;
1082;SDS011;530;51.448;7.238;2024-01-10T04:32:16;9.87;;;6.47;;
1082;SDS011;530;51.448;7.238;2024-01-10T04:34:42;8.53;;;6.50;;
1082;SDS011;530;51.448;7.238;2024-01-10T04:37:07;8.57;;;6.00;;
1082;SDS011;530;51.448;7.238;2024-01-10T04:39:33;10.17;;;6.00;;
1082;SDS011;530;51.448;7.238;2024-01-10T04:41:59;10.83;;;6.70;;
1082;SDS011;530;51.448;7.238;2024-01-10T04:44:25;8.20;;;5.80;;
1082;SDS011;530;51.448;7.238;2024-01-10T04:46:51;10.23;;;7.20;;
1082;SDS011;530;51.448;7.238;2024-01-10T04:49:16;10.50;;;6.23;;
1082;SDS011;530;51.448;7.238;2024-01-10T04:51:42;11.23;;;6.60;;
1082;SDS011;530;51.448;7.238;2024-01-10T04:54:08;10.50;;;6.30;;
1082;SDS011;530;51.448;7.238;2024-01-10T04:56:34;12.33;;;6.80;;
1082;SDS011;530;51.448;7.238;2024-01-10T04:59:03;11.30;;;6.87;;
1082;SDS011;530;51.448;7.238;2024-01-10T05:01:29;10.57;;;6.20;;
1082;SDS011;530;51.448;7.238;2024-01-10T05:03:55;11.03;;;7.17;;
1082;SDS011;530;51.448;7.238;2024-01-10T05:06:21;8.90;;;6.00;;
1082;SDS011;530;51.448;7.238;2024-01-10T05:08:47;9.77;;;7.63;;
1082;SDS011;530;51.448;7.238;2024-01-10T05:11:12;10.70;;;6.90;;
1082;SDS011;530;51.448;7.238;2024-01-10T05:13:40;8.70;;;6.13;;
1082;SDS011;530;51.448;7.238;2024-01-10T05:16:05;10.67;;;6.67;;
1082;SDS011;530;51.448;7.238;2024-01-10T05:18:31;9.17;;;6.60;;
1082;SDS011;530;51.448;7.238;2024-01-10T05:20:58;10.70;;;6.90;;
1082;SDS011;530;51.448;7.238;2024-01-10T05:23:24;11.37;;;6.50;;
1082;SDS011;530;51.448;7.238;2024-01-10T05:25:50;9.73;;;6.93;;
1082;SDS011;530;51.448;7.238;2024-01-10T05:28:15;10.37;;;6.53;;
1082;SDS011;530;51.448;7.238;2024-01-10T05:30:41;9.83;;;6.50;;
1082;SDS011;530;51.448;7.238;2024-01-10T05:33:09;12.70;;;7.00;;
1082;SDS011;530;51.448;7.238;2024-01-10T05:35:36;10.33;;;6.43;;
1082;SDS011;530;51.448;7.238;2024-01-10T05:38:03;10.20;;;6.60;;
1082;SDS011;530;51.448;7.238;2024-01-10T05:40:29;13.30;;;7.93;;
1082;SDS011;530;51.448;7.238;2024-01-10T05:43:00;14.33;;;8.00;;
1082;SDS011;530;51.448;7.238;2024-01-10T05:45:26;9.80;;;6.90;;
1082;SDS011;530;51.448;7.238;2024-01-10T05:47:52;12.17;;;7.70;;
1082;SDS011;530;51.448;7.238;2024-01-10T05:50:18;12.13;;;6.70;;
1082;SDS011;530;51.448;7.238;2024-01-10T05:52:44;13.30;;;7.43;;
1082;SDS011;530;51.448;7.238;2024-01-10T05:55:10;13.43;;;7.60;;
1082;SDS011;530;51.448;7.238;2024-01-10T05:57:36;13.10;;;6.90;;
1082;SDS011;530;51.448;7.238;2024-01-10T06:00:02;10.00;;;7.73;;
1082;SDS011;530;51.448;7.238;2024-01-10T06:02:29;11.17;;;6.80;;
1082;SDS011;530;51.448;7.238;2024-01-10T06:04:55;17.73;;;7.90;;
1082;SDS011;530;51.448;7.238;2024-01-10T06:07:21;9.93;;;7.17;;
1082;SDS011;530;51.448;7.238;2024-01-10T06:09:47;9.50;;;5.90;;
1082;SDS011;530;51.448;7.238;2024-01-10T06:12:13;10.90;;;6.60;;
1082;SDS011;530;51.448;7.238;2024-01-10T06:14:39;10.93;;;6.80;;
1082;SDS011;530;51.448;7.238;2024-01-10T06:17:05;12.50;;;6.77;;
1082;SDS011;530;51.448;7.238;2024-01-10T06:19:31;13.57;;;7.17;;
1082;SDS011;530;51.448;7.238;2024-01-10T06:21:57;11.10;;;7.30;;
1082;SDS011;530;51.448;7.238;2024-01-10T06:24:23;12.93;;;7.70;;
1082;SDS011;530;51.448;7.238;2024-01-10T06:26:49;10.60;;;7.07;;
1082;SDS011;530;51.448;7.238;2024-01-10T06:29:15;11.10;;;7.53;;
1082;SDS011;530;51.448;7.238;2024-01-10T06:31:41;10.27;;;7.80;;
1082;SDS011;530;51.448;7.238;2024-01-10T06:34:07;15.60;;;7.77;;
1082;SDS011;530;51.448;7.238;2024-01-10T06:36:33;10.80;;;7.13;;
1082;SDS011;530;51.448;7.238;2024-01-10T06:38:59;10.83;;;6.60;;
1082;SDS011;530;51.448;7.238;2024-01-10T06:41:25;12.53;;;8.10;;
1082;SDS011;530;51.448;7.238;2024-01-10T06:43:54;13.83;;;7.97;;
1082;SDS011;530;51.448;7.238;2024-01-10T06:46:20;12.83;;;7.53;;
1082;SDS011;530;51.448;7.238;2024-01-10T06:48:46;12.17;;;7.83;;
1082;SDS011;530;51.448;7.238;2024-01-10T06:51:12;12.87;;;7.43;;
1082;SDS011;530;51.448;7.238;2024-01-10T06:53:39;16.53;;;8.47;;
1082;SDS011;530;51.448;7.238;2024-01-10T06:56:05;12.70;;;8.00;;
1082;SDS011;530;51.448;7.238;2024-01-10T06:58:32;15.33;;;9.07;;
1082;SDS011;530;51.448;7.238;2024-01-10T07:00:58;14.53;;;8.50;;
1082;SDS011;530;51.448;7.238;2024-01-10T07:03:30;11.37;;;7.57;;
1082;SDS011;530;51.448;7.238;2024-01-10T07:05:56;14.13;;;7.60;;
1082;SDS011;530;51.448;7.238;2024-01-10T07:08:22;13.30;;;8.27;;
1082;SDS011;530;51.448;7.238;2024-01-10T07:10:48;13.77;;;7.97;;
1082;SDS011;530;51.448;7.238;2024-01-10T07:13:13;13.67;;;7.70;;
1082;SDS011;530;51.448;7.238;2024-01-10T07:15:39;12.57;;;7.70;;
1082;SDS011;530;51.448;7.238;2024-01-10T07:18:05;13.33;;;8.20;;
1082;SDS011;530;51.448;7.238;2024-01-10T07:20:31;16.77;;;7.90;;
1082;SDS011;530;51.448;7.238;2024-01-10T07:22:58;15.03;;;9.00;;
1082;SDS011;530;51.448;7.238;2024-01-10T07:25:24;12.30;;;7.97;;
1082;SDS011;530;51.448;7.238;2024-01-10T07:27:53;15.83;;;9.83;;
1082;SDS011;530;51.448;7.238;2024-01-10T07:30:19;13.77;;;8.33;;
1082;SDS011;530;51.448;7.238;2024-01-10T07:32:45;13.27;;;8.10;;
1082;SDS011;530;51.448;7.238;2024-01-10T07:35:12;14.83;;;9.60;;
1082;SDS011;530;51.448;7.238;2024-01-10T07:37:42;16.57;;;8.63;;
1082;SDS011;530;51.448;7.238;2024-01-10T07:40:08;13.63;;;8.20;;
1082;SDS011;530;51.448;7.238;2024-01-10T07:42:35;17.07;;;9.10;;
1082;SDS011;530;51.448;7.238;2024-01-10T07:45:02;14.50;;;8.70;;
1082;SDS011;530;51.448;7.238;2024-01-10T07:47:32;14.80;;;9.63;;
1082;SDS011;530;51.448;7.238;2024-01-10T07:49:59;14.80;;;8.20;;
1082;SDS011;530;51.448;7.238;2024-01-10T07:52:25;16.70;;;8.83;;
1082;SDS011;530;51.448;7.238;2024-01-10T07:54:51;15.30;;;8.40;;
1082;SDS011;530;51.448;7.238;2024-01-10T07:57:17;16.50;;;8.40;;
1082;SDS011;530;51.448;7.238;2024-01-10T07:59:46;18.77;;;10.43;;
1082;SDS011;530;51.448;7.238;2024-01-10T08:02:12;19.07;;;10.43;;
1082;SDS011;530;51.448;7.238;2024-01-10T08:04:38;15.23;;;8.70;;
1082;SDS011;530;51.448;7.238;2024-01-10T08:07:03;15.80;;;8.67;;
1082;SDS011;530;51.448;7.238;2024-01-10T08:09:29;18.27;;;9.30;;
1082;SDS011;530;51.448;7.238;2024-01-10T08:11:55;14.80;;;9.10;;
1082;SDS011;530;51.448;7.238;2024-01-10T08:14:20;19.17;;;9.40;;
1082;SDS011;530;51.448;7.238;2024-01-10T08:16:46;13.77;;;8.70;;
1082;SDS011;530;51.448;7.238;2024-01-10T08:19:12;15.23;;;9.07;;
1082;SDS011;530;51.448;7.238;2024-01-10T08:21:37;18.00;;;9.03;;
1082;SDS011;530;51.448;7.238;2024-01-10T08:24:03;13.30;;;8.70;;
1082;SDS011;530;51.448;7.238;2024-01-10T08:26:30;12.03;;;8.10;;
1082;SDS011;530;51.448;7.238;2024-01-10T08:28:56;12.93;;;9.20;;
1082;SDS011;530;51.448;7.238;2024-01-10T08:31:22;18.10;;;9.87;;
1082;SDS011;530;51.448;7.238;2024-01-10T08:33:48;17.40;;;9.50;;
1082;SDS011;530;51.448;7.238;2024-01-10T08:36:14;14.03;;;9.43;;
1082;SDS011;530;51.448;7.238;2024-01-10T08:38:41;19.83;;;10.40;;
1082;SDS011;530;51.448;7.238;2024-01-10T08:41:09;16.83;;;9.77;;
1082;SDS011;530;51.448;7.238;2024-01-10T08:43:38;16.77;;;9.93;;
1082;SDS011;530;51.448;7.238;2024-01-10T08:46:04;18.20;;;10.60;;
1082;SDS011;530;51.448;7.238;2024-01-10T08:48:29;18.27;;;10.13;;
1082;SDS011;530;51.448;7.238;2024-01-10T08:50:55;15.87;;;10.30;;
1082;SDS011;530;51.448;7.238;2024-01-10T08:53:21;20.93;;;11.33;;
1082;SDS011;530;51.448;7.238;2024-01-10T08:55:47;20.17;;;11.87;;
1082;SDS011;530;51.448;7.238;2024-01-10T08:58:13;16.97;;;10.80;;
1082;SDS011;530;51.448;7.238;2024-01-10T09:00:39;22.50;;;11.77;;
1082;SDS011;530;51.448;7.238;2024-01-10T09:03:05;22.20;;;12.33;;
1082;SDS011;530;51.448;7.238;2024-01-10T09:05:30;18.30;;;11.10;;
1082;SDS011;530;51.448;7.238;2024-01-10T09:07:56;19.40;;;11.50;;
1082;SDS011;530;51.448;7.238;2024-01-10T09:10:22;17.17;;;11.50;;
1082;SDS011;530;51.448;7.238;2024-01-10T09:12:48;19.10;;;12.07;;
1082;SDS011;530;51.448;7.238;2024-01-10T09:15:14;19.40;;;11.97;;
1082;SDS011;530;51.448;7.238;2024-01-10T09:17:41;20.27;;;11.50;;
1082;SDS011;530;51.448;7.238;2024-01-10T09:20:07;20.30;;;12.47;;
1082;SDS011;530;51.448;7.238;2024-01-10T09:22:33;18.53;;;11.80;;
1082;SDS011;530;51.448;7.238;2024-01-10T09:24:59;23.07;;;11.90;;
1082;SDS011;530;51.448;7.238;2024-01-10T09:27:31;23.40;;;12.67;;
1082;SDS011;530;51.448;7.238;2024-01-10T09:29:57;20.23;;;11.90;;
1082;SDS011;530;51.448;7.238;2024-01-10T09:32:22;19.40;;;12.13;;
1082;SDS011;530;51.448;7.238;2024-01-10T09:34:48;19.17;;;11.53;;
1082;SDS011;530;51.448;7.238;2024-01-10T09:37:14;19.40;;;12.43;;
1082;SDS011;530;51.448;7.238;2024-01-10T09:39:40;25.50;;;12.37;;
1082;SDS011;530;51.448;7.238;2024-01-10T09:42:06;17.03;;;11.60;;
1082;SDS011;530;51.448;7.238;2024-01-10T09:44:32;20.63;;;12.53;;
1082;SDS011;530;51.448;7.238;2024-01-10T09:46:58;21.63;;;13.13;;
1082;SDS011;530;51.448;7.238;2024-01-10T09:49:25;24.60;;;12.83;;
1082;SDS011;530;51.448;7.238;2024-01-10T09:51:57;23.40;;;13.10;;
1082;SDS011;530;51.448;7.238;2024-01-10T09:54:26;20.83;;;13.30;;
1082;SDS011;530;51.448;7.238;2024-01-10T09:56:55;20.20;;;12.60;;
1082;SDS011;530;51.448;7.238;2024-01-10T09:59:22;21.00;;;13.63;;
1082;SDS011;530;51.448;7.238;2024-01-10T10:01:48;23.00;;;14.13;;
1082;SDS011;530;51.448;7.238;2024-01-10T10:04:16;17.90;;;12.67;;
1082;SDS011;530;51.448;7.238;2024-01-10T10:06:44;20.83;;;13.23;;
1082;SDS011;530;51.448;7.238;2024-01-10T10:09:10;20.00;;;13.53;;
1082;SDS011;530;51.448;7.238;2024-01-10T10:11:37;19.73;;;13.57;;
1082;SDS011;530;51.448;7.238;2024-01-10T10:14:17;20.17;;;14.07;;
1082;SDS011;530;51.448;7.238;2024-01-10T10:16:43;24.43;;;14.60;;
1082;SDS011;530;51.448;7.238;2024-01-10T10:19:09;25.60;;;14.07;;
1082;SDS011;530;51.448;7.238;2024-01-10T10:21:37;19.97;;;13.90;;
1082;SDS011;530;51.448;7.238;2024-01-10T10:24:04;24.33;;;15.00;;
1082;SDS011;530;51.448;7.238;2024-01-10T10:26:33;20.37;;;14.00;;
1082;SDS011;530;51.448;7.238;2024-01-10T10:28:59;24.10;;;15.13;;
1082;SDS011;530;51.448;7.238;2024-01-10T10:31:26;22.30;;;15.10;;
1082;SDS011;530;51.448;7.238;2024-01-10T10:33:52;20.10;;;15.10;;
1082;SDS011;530;51.448;7.238;2024-01-10T10:36:21;24.20;;;16.23;;
1082;SDS011;530;51.448;7.238;2024-01-10T10:38:47;25.23;;;16.70;;
1082;SDS011;530;51.448;7.238;2024-01-10T10:41:16;20.33;;;14.83;;
1082;SDS011;530;51.448;7.238;2024-01-10T10:43:43;22.67;;;15.63;;
1082;SDS011;530;51.448;7.238;2024-01-10T10:46:09;21.83;;;15.10;;
1082;SDS011;530;51.448;7.238;2024-01-10T10:48:37;22.20;;;16.20;;
1082;SDS011;530;51.448;7.238;2024-01-10T10:51:17;23.97;;;15.00;;
1082;SDS011;530;51.448;7.238;2024-01-10T10:53:51;21.60;;;14.67;;
1082;SDS011;530;51.448;7.238;2024-01-10T10:56:18;21.50;;;15.77;;
1082;SDS011;530;51.448;7.238;2024-01-10T10:58:43;22.70;;;14.27;;
1082;SDS011;530;51.448;7.238;2024-01-10T11:01:12;25.03;;;15.20;;
1082;SDS011;530;51.448;7.238;2024-01-10T11:03:40;23.13;;;16.17;;
1082;SDS011;530;51.448;7.238;2024-01-10T11:06:07;20.57;;;14.53;;
1082;SDS011;530;51.448;7.238;2024-01-10T11:08:35;23.30;;;15.20;;
1082;SDS011;530;51.448;7.238;2024-01-10T11:16:51;25.23;;;14.90;;
1082;SDS011;530;51.448;7.238;2024-01-10T11:25:05;22.00;;;15.00;;
1082;SDS011;530;51.448;7.238;2024-01-10T11:27:31;21.83;;;14.13;;
1082;SDS011;530;51.448;7.238;2024-01-10T11:29:56;23.53;;;14.97;;
1082;SDS011;530;51.448;7.238;2024-01-10T11:32:24;23.70;;;15.53;;
1082;SDS011;530;51.448;7.238;2024-01-10T11:34:53;24.40;;;15.20;;
1082;SDS011;530;51.448;7.238;2024-01-10T11:37:24;21.40;;;15.20;;
1082;SDS011;530;51.448;7.238;2024-01-10T11:40:15;20.77;;;14.17;;
1082;SDS011;530;51.448;7.238;2024-01-10T11:43:12;20.93;;;14.13;;
1082;SDS011;530;51.448;7.238;2024-01-10T11:45:38;25.03;;;14.87;;
1082;SDS011;530;51.448;7.238;2024-01-10T11:48:15;24.43;;;15.57;;
1082;SDS011;530;51.448;7.238;2024-01-10T11:50:40;24.17;;;15.80;;
1082;SDS011;530;51.448;7.238;2024-01-10T11:53:07;27.07;;;16.60;;
1082;SDS011;530;51.448;7.238;2024-01-10T11:55:50;23.93;;;16.20;;
1082;SDS011;530;51.448;7.238;2024-01-10T11:58:18;22.23;;;14.77;;
1082;SDS011;530;51.448;7.238;2024-01-10T12:00:44;22.20;;;14.93;;
1082;SDS011;530;51.448;7.238;2024-01-10T12:03:12;25.53;;;15.40;;
1082;SDS011;530;51.448;7.238;2024-01-10T12:05:39;20.50;;;15.67;;
1082;SDS011;530;51.448;7.238;2024-01-10T12:08:08;20.60;;;15.80;;
1082;SDS011;530;51.448;7.238;2024-01-10T12:10:34;24.50;;;17.00;;
1082;SDS011;530;51.448;7.238;2024-01-10T12:13:03;23.83;;;18.07;;
1082;SDS011;530;51.448;7.238;2024-01-10T12:15:29;24.90;;;17.70;;
1082;SDS011;530;51.448;7.238;2024-01-10T12:17:55;26.23;;;18.83;;
1082;SDS011;530;51.448;7.238;2024-01-10T12:20:21;21.70;;;17.80;;
1082;SDS011;530;51.448;7.238;2024-01-10T12:22:46;22.53;;;17.90;;
1082;SDS011;530;51.448;7.238;2024-01-10T12:25:12;22.93;;;19.00;;
1082;SDS011;530;51.448;7.238;2024-01-10T12:27:38;22.80;;;19.07;;
1082;SDS011;530;51.448;7.238;2024-01-10T12:30:04;24.87;;;19.20;;
1082;SDS011;530;51.448;7.238;2024-01-10T12:32:32;25.53;;;18.60;;
1082;SDS011;530;51.448;7.238;2024-01-10T12:34:59;27.30;;;18.63;;
1082;SDS011;530;51.448;7.238;2024-01-10T12:37:26;18.97;;;16.70;;
1082;SDS011;530;51.448;7.238;2024-01-10T12:39:52;22.97;;;17.23;;
1082;SDS011;530;51.448;7.238;2024-01-10T12:42:18;24.40;;;16.93;;
1082;SDS011;530;51.448;7.238;2024-01-10T12:44:44;21.83;;;17.20;;
1082;SDS011;530;51.448;7.238;2024-01-10T12:47:20;22.50;;;16.57;;
1082;SDS011;530;51.448;7.238;2024-01-10T12:49:48;21.93;;;16.83;;
1082;SDS011;530;51.448;7.238;2024-01-10T12:52:14;23.30;;;16.20;;
1082;SDS011;530;51.448;7.238;2024-01-10T12:54:40;24.10;;;16.40;;
1082;SDS011;530;51.448;7.238;2024-01-10T12:57:07;21.90;;;14.60;;
1082;SDS011;530;51.448;7.238;2024-01-10T12:59:33;23.23;;;16.40;;
1082;SDS011;530;51.448;7.238;2024-01-10T13:01:59;26.07;;;17.10;;
1082;SDS011;530;51.448;7.238;2024-01-10T13:04:25;21.80;;;14.90;;
1082;SDS011;530;51.448;7.238;2024-01-10T13:06:52;24.30;;;15.70;;
1082;SDS011;530;51.448;7.238;2024-01-10T13:09:17;23.40;;;15.43;;
1082;SDS011;530;51.448;7.238;2024-01-10T13:11:43;22.10;;;15.97;;
1082;SDS011;530;51.448;7.238;2024-01-10T13:14:10;25.87;;;15.60;;
1082;SDS011;530;51.448;7.238;2024-01-10T13:16:37;24.80;;;15.90;;
1082;SDS011;530;51.448;7.238;2024-01-10T13:19:03;32.47;;;16.27;;
1082;SDS011;530;51.448;7.238;2024-01-10T13:21:28;26.00;;;16.63;;
1082;SDS011;530;51.448;7.238;2024-01-10T13:23:54;22.10;;;14.20;;
1082;SDS011;530;51.448;7.238;2024-01-10T13:26:20;22.73;;;15.10;;
1082;SDS011;530;51.448;7.238;2024-01-10T13:28:46;26.03;;;16.00;;
1082;SDS011;530;51.448;7.238;2024-01-10T13:31:12;25.13;;;15.60;;
1082;SDS011;530;51.448;7.238;2024-01-10T13:33:37;25.30;;;14.30;;
1082;SDS011;530;51.448;7.238;2024-01-10T13:36:03;34.73;;;17.10;;
1082;SDS011;530;51.448;7.238;2024-01-10T13:38:30;24.13;;;16.23;;
1082;SDS011;530;51.448;7.238;2024-01-10T13:40:56;24.77;;;15.90;;
1082;SDS011;530;51.448;7.238;2024-01-10T13:43:21;31.07;;;16.60;;
1082;SDS011;530;51.448;7.238;2024-01-10T13:45:47;28.87;;;16.97;;
1082;SDS011;530;51.448;7.238;2024-01-10T13:48:13;25.27;;;16.00;;
1082;SDS011;530;51.448;7.238;2024-01-10T13:50:39;26.83;;;16.13;;
1082;SDS011;530;51.448;7.238;2024-01-10T13:53:04;26.33;;;16.20;;
1082;SDS011;530;51.448;7.238;2024-01-10T13:55:30;39.93;;;17.43;;
1082;SDS011;530;51.448;7.238;2024-01-10T13:57:57;43.50;;;16.80;;
1082;SDS011;530;51.448;7.238;2024-01-10T14:00:22;41.37;;;17.00;;
1082;SDS011;530;51.448;7.238;2024-01-10T14:02:48;22.20;;;14.57;;
1082;SDS011;530;51.448;7.238;2024-01-10T14:05:14;32.60;;;16.70;;
1082;SDS011;530;51.448;7.238;2024-01-10T14:07:40;26.17;;;16.03;;
1082;SDS011;530;51.448;7.238;2024-01-10T14:10:09;24.10;;;15.00;;
1082;SDS011;530;51.448;7.238;2024-01-10T14:12:36;27.43;;;16.67;;
1082;SDS011;530;51.448;7.238;2024-01-10T14:15:03;24.53;;;16.47;;
1082;SDS011;530;51.448;7.238;2024-01-10T14:17:29;26.60;;;16.00;;
1082;SDS011;530;51.448;7.238;2024-01-10T14:19:55;27.80;;;18.07;;
1082;SDS011;530;51.448;7.238;2024-01-10T14:22:21;26.20;;;15.50;;
1082;SDS011;530;51.448;7.238;2024-01-10T14:24:48;27.00;;;16.90;;
1082;SDS011;530;51.448;7.238;2024-01-10T14:27:15;25.57;;;16.37;;
1082;SDS011;530;51.448;7.238;2024-01-10T14:29:41;31.27;;;17.63;;
1082;SDS011;530;51.448;7.238;2024-01-10T14:32:07;29.10;;;17.70;;
1082;SDS011;530;51.448;7.238;2024-01-10T14:34:33;27.20;;;17.10;;
1082;SDS011;530;51.448;7.238;2024-01-10T14:36:59;23.27;;;16.47;;
1082;SDS011;530;51.448;7.238;2024-01-10T14:39:24;31.83;;;18.50;;
1082;SDS011;530;51.448;7.238;2024-01-10T14:41:50;27.93;;;17.10;;
1082;SDS011;530;51.448;7.238;2024-01-10T14:44:16;29.83;;;17.20;;
1082;SDS011;530;51.448;7.238;2024-01-10T14:46:41;25.67;;;16.93;;
1082;SDS011;530;51.448;7.238;2024-01-10T14:49:08;26.63;;;14.90;;
1082;SDS011;530;51.448;7.238;2024-01-10T14:51:33;24.57;;;16.30;;
1082;SDS011;530;51.448;7.238;2024-01-10T14:53:59;25.70;;;16.50;;
1082;SDS011;530;51.448;7.238;2024-01-10T14:56:25;29.07;;;17.23;;
1082;SDS011;530;51.448;7.238;2024-01-10T14:58:50;26.30;;;16.67;;
1082;SDS011;530;51.448;7.238;2024-01-10T15:01:17;28.10;;;18.00;;
1082;SDS011;530;51.448;7.238;2024-01-10T15:03:43;27.40;;;17.87;;
1082;SDS011;530;51.448;7.238;2024-01-10T15:06:08;28.20;;;17.57;;
1082;SDS011;530;51.448;7.238;2024-01-10T15:08:34;29.53;;;16.33;;
1082;SDS011;530;51.448;7.238;2024-01-10T15:11:00;27.10;;;16.20;;
1082;SDS011;530;51.448;7.238;2024-01-10T15:13:26;23.83;;;16.00;;
1082;SDS011;530;51.448;7.238;2024-01-10T15:15:52;31.20;;;16.93;;
1082;SDS011;530;51.448;7.238;2024-01-10T15:18:17;26.47;;;17.10;;
1082;SDS011;530;51.448;7.238;2024-01-10T15:20:45;25.23;;;15.90;;